createdAt,value
2023-05-05T00:00:13.311Z,16.92
2023-05-05T00:02:40.695Z,14.30
2023-05-05T00:05:08.041Z,16.93
2023-05-05T00:07:34.843Z,16.48
2023-05-05T00:10:01.922Z,17.42
2023-05-05T00:12:29.121Z,16.40
2023-05-05T00:14:56.236Z,13.82
2023-05-05T00:17:23.270Z,15.87
2023-05-05T00:19:50.268Z,15.85
2023-05-05T00:22:17.191Z,16.33
2023-05-05T00:24:44.051Z,17.48
2023-05-05T00:27:11.050Z,19.33
2023-05-05T00:29:37.939Z,18.97
2023-05-05T00:32:04.956Z,20.83
2023-05-05T00:34:32.250Z,19.98
2023-05-05T00:36:59.662Z,18.48
2023-05-05T00:39:26.604Z,18.92
2023-05-05T00:41:53.608Z,17.63
2023-05-05T00:44:41.744Z,18.25
2023-05-05T00:47:09.941Z,20.23
2023-05-05T00:49:38.152Z,19.63
2023-05-05T00:52:07.332Z,18.75
2023-05-05T00:54:35.730Z,16.40
2023-05-05T00:57:03.543Z,16.23
2023-05-05T00:59:32.806Z,16.50
2023-05-05T01:02:00.058Z,19.10
2023-05-05T01:04:27.951Z,17.13
2023-05-05T01:07:15.287Z,15.70
2023-05-05T01:10:19.649Z,14.65
2023-05-05T01:13:05.211Z,13.68
2023-05-05T01:15:39.264Z,13.77
2023-05-05T01:18:38.536Z,12.00
2023-05-05T01:21:05.420Z,11.47
2023-05-05T01:24:06.818Z,12.02
2023-05-05T01:26:33.572Z,12.40
2023-05-05T01:29:12.022Z,11.40
2023-05-05T01:31:57.644Z,10.07
2023-05-05T01:34:37.125Z,8.97
2023-05-05T01:37:55.620Z,10.27
2023-05-05T01:40:27.587Z,10.73
2023-05-05T01:42:56.169Z,9.98
2023-05-05T01:45:28.446Z,9.98
2023-05-05T01:47:57.299Z,10.83
2023-05-05T01:50:28.218Z,13.27
2023-05-05T01:52:57.756Z,11.38
2023-05-05T01:55:26.295Z,12.18
2023-05-05T01:57:56.010Z,12.88
2023-05-05T02:00:25.392Z,15.00
2023-05-05T02:02:56.112Z,12.35
2023-05-05T02:05:24.696Z,15.18
2023-05-05T02:07:56.400Z,15.32
2023-05-05T02:10:23.738Z,16.02
2023-05-05T02:12:53.291Z,13.73
2023-05-05T02:15:22.899Z,13.18
2023-05-05T02:17:52.851Z,15.20
2023-05-05T02:20:20.556Z,13.05
2023-05-05T02:22:48.804Z,11.90
2023-05-05T02:25:17.662Z,13.33
2023-05-05T02:27:48.655Z,11.85
2023-05-05T02:30:19.913Z,12.25
2023-05-05T02:33:05.132Z,12.57
2023-05-05T02:35:38.017Z,12.20
2023-05-05T02:38:13.172Z,11.60
2023-05-05T02:40:43.261Z,12.55
2023-05-05T02:43:19.632Z,12.40
2023-05-05T02:45:47.249Z,12.80
2023-05-05T02:48:15.575Z,14.18
2023-05-05T02:50:42.952Z,14.67
2023-05-05T02:53:24.864Z,15.43
2023-05-05T02:56:05.726Z,14.45
2023-05-05T02:59:23.108Z,13.32
2023-05-05T03:02:05.940Z,12.45
2023-05-05T03:04:50.561Z,13.40
2023-05-05T03:07:26.267Z,13.50
2023-05-05T03:10:03.138Z,11.25
2023-05-05T03:12:39.790Z,12.55
2023-05-05T03:15:15.867Z,10.27
2023-05-05T03:17:43.816Z,8.70
2023-05-05T03:20:12.696Z,9.52
2023-05-05T03:22:42.510Z,9.07
2023-05-05T03:25:13.066Z,7.47
2023-05-05T03:27:41.086Z,8.73
2023-05-05T03:30:09.679Z,8.53
2023-05-05T03:32:43.780Z,7.88
2023-05-05T03:35:11.100Z,9.40
2023-05-05T03:37:38.171Z,7.65
2023-05-05T03:40:05.531Z,7.80
2023-05-05T03:42:32.624Z,6.73
2023-05-05T03:45:00.232Z,8.27
2023-05-05T03:47:27.756Z,7.80
2023-05-05T03:49:56.215Z,7.32
2023-05-05T03:52:23.456Z,9.18
2023-05-05T03:54:50.600Z,14.67
2023-05-05T03:57:18.573Z,8.90
2023-05-05T03:59:45.796Z,10.48
2023-05-05T04:02:13.045Z,10.40
2023-05-05T04:04:40.735Z,8.43
2023-05-05T04:07:07.854Z,11.83
2023-05-05T04:09:34.988Z,11.43
2023-05-05T04:12:03.104Z,10.30
2023-05-05T04:14:30.002Z,10.20
2023-05-05T04:16:57.965Z,10.85
2023-05-05T04:19:24.972Z,11.70
2023-05-05T04:21:52.063Z,10.63
2023-05-05T04:24:23.207Z,13.77
2023-05-05T04:26:50.286Z,11.65
2023-05-05T04:29:17.284Z,12.02
2023-05-05T04:31:48.473Z,11.77
2023-05-05T04:34:15.668Z,12.18
2023-05-05T04:36:43.198Z,12.75
2023-05-05T04:39:10.574Z,16.08
2023-05-05T04:41:37.569Z,13.85
2023-05-05T04:44:04.751Z,13.60
2023-05-05T04:46:31.897Z,12.00
2023-05-05T04:48:59.334Z,12.93
2023-05-05T04:51:27.728Z,13.90
2023-05-05T04:53:54.685Z,16.92
2023-05-05T04:56:21.447Z,17.63
2023-05-05T04:58:48.284Z,19.80
2023-05-05T05:01:15.850Z,17.50
2023-05-05T05:03:42.805Z,20.83
2023-05-05T05:06:09.730Z,15.90
2023-05-05T05:08:36.664Z,17.27
2023-05-05T05:11:03.624Z,19.80
2023-05-05T05:13:31.285Z,21.23
2023-05-05T05:15:58.420Z,19.35
2023-05-05T05:18:25.559Z,19.23
2023-05-05T05:20:53.094Z,16.27
2023-05-05T05:23:20.288Z,19.70
2023-05-05T05:25:47.889Z,18.63
2023-05-05T05:28:17.533Z,19.70
2023-05-05T05:30:54.649Z,16.23
2023-05-05T05:33:21.676Z,16.83
2023-05-05T05:35:49.133Z,15.65
2023-05-05T05:38:18.192Z,19.05
2023-05-05T05:40:45.909Z,16.42
2023-05-05T05:43:13.031Z,18.85
2023-05-05T05:45:40.650Z,19.43
2023-05-05T05:48:08.582Z,23.63
2023-05-05T05:50:36.492Z,22.92
2023-05-05T05:53:04.174Z,19.58
2023-05-05T05:55:31.436Z,22.75
2023-05-05T05:57:58.564Z,22.13
2023-05-05T06:00:26.198Z,22.88
2023-05-05T06:03:00.470Z,19.58
2023-05-05T06:05:31.409Z,21.80
2023-05-05T06:07:58.520Z,21.42
2023-05-05T06:10:28.335Z,24.17
2023-05-05T06:13:01.682Z,23.63
2023-05-05T06:15:29.584Z,20.00
2023-05-05T06:17:57.172Z,23.35
2023-05-05T06:20:25.001Z,21.65
2023-05-05T06:22:52.126Z,23.83
2023-05-05T06:25:19.272Z,22.13
2023-05-05T06:27:46.482Z,22.67
2023-05-05T06:30:14.741Z,22.00
2023-05-05T06:32:41.534Z,21.13
2023-05-05T06:35:09.021Z,22.50
2023-05-05T06:37:35.925Z,22.65
2023-05-05T06:40:02.648Z,19.77
2023-05-05T06:42:30.787Z,22.35
2023-05-05T06:44:58.285Z,21.65
2023-05-05T06:47:26.016Z,22.97
2023-05-05T06:49:52.903Z,19.35
2023-05-05T06:52:19.788Z,16.00
2023-05-05T06:54:46.707Z,18.50
2023-05-05T06:57:13.719Z,17.35
2023-05-05T06:59:40.955Z,16.63
2023-05-05T07:02:07.934Z,16.83
2023-05-05T07:04:34.919Z,15.27
2023-05-05T07:07:01.899Z,17.63
2023-05-05T07:09:28.809Z,14.57
2023-05-05T07:11:55.722Z,16.77
2023-05-05T07:14:24.350Z,14.18
2023-05-05T07:16:51.693Z,13.95
2023-05-05T07:19:18.532Z,14.27
2023-05-05T07:21:45.319Z,15.75
2023-05-05T07:24:12.140Z,13.67
2023-05-05T07:26:38.999Z,14.23
2023-05-05T07:29:07.078Z,15.52
2023-05-05T07:31:37.592Z,15.55
2023-05-05T07:34:05.961Z,14.32
2023-05-05T07:36:33.135Z,13.27
2023-05-05T07:39:00.722Z,13.23
2023-05-05T07:41:27.786Z,16.48
2023-05-05T07:43:54.641Z,14.60
2023-05-05T07:46:21.596Z,14.68
2023-05-05T07:48:48.390Z,12.83
2023-05-05T07:51:15.332Z,13.70
2023-05-05T07:53:42.258Z,10.35
2023-05-05T07:56:09.172Z,12.13
2023-05-05T07:58:36.005Z,11.18
2023-05-05T08:01:02.984Z,13.33
2023-05-05T08:03:29.909Z,12.38
2023-05-05T08:05:56.986Z,12.38
2023-05-05T08:08:25.072Z,13.73
2023-05-05T08:10:53.190Z,12.57
2023-05-05T08:13:20.501Z,13.47
2023-05-05T08:15:47.719Z,12.45
2023-05-05T08:18:15.030Z,12.32
2023-05-05T08:20:41.970Z,11.27
2023-05-05T08:23:08.961Z,11.80
2023-05-05T08:25:36.103Z,13.10
2023-05-05T08:28:03.125Z,10.02
2023-05-05T08:30:30.325Z,10.65
2023-05-05T08:32:57.428Z,12.05
2023-05-05T08:35:24.440Z,8.50
2023-05-05T08:37:55.970Z,11.00
2023-05-05T08:40:31.906Z,10.75
2023-05-05T08:42:59.712Z,9.20
2023-05-05T08:45:28.490Z,10.63
2023-05-05T08:47:57.490Z,10.40
2023-05-05T08:50:28.995Z,9.03
2023-05-05T08:53:19.896Z,9.05
2023-05-05T08:55:52.390Z,11.60
2023-05-05T08:58:19.691Z,12.02
2023-05-05T09:00:46.934Z,10.30
2023-05-05T09:03:14.555Z,10.00
2023-05-05T09:05:43.055Z,9.88
2023-05-05T09:08:13.294Z,11.05
2023-05-05T09:10:44.619Z,10.82
2023-05-05T09:15:52.175Z,10.70
2023-05-05T09:18:19.125Z,10.57
2023-05-05T09:20:46.420Z,10.98
2023-05-05T09:23:15.434Z,14.98
2023-05-05T09:25:45.895Z,9.23
2023-05-05T09:28:14.805Z,9.53
2023-05-05T09:30:42.959Z,7.13
2023-05-05T09:33:10.605Z,5.88
2023-05-05T09:35:54.632Z,5.35
2023-05-05T09:38:23.595Z,5.65
2023-05-05T09:40:52.117Z,8.73
2023-05-05T09:43:21.942Z,4.85
2023-05-05T09:45:49.843Z,2.58
2023-05-05T09:48:31.655Z,3.20
2023-05-05T09:50:59.505Z,3.45
2023-05-05T09:53:27.104Z,4.20
2023-05-05T09:55:58.296Z,4.05
2023-05-05T09:58:29.838Z,6.18
2023-05-05T10:00:58.397Z,3.42
2023-05-05T10:03:26.329Z,2.75
2023-05-05T10:05:55.914Z,3.70
2023-05-05T10:08:26.491Z,3.58
2023-05-05T10:11:07.192Z,3.13
2023-05-05T10:13:42.030Z,3.97
2023-05-05T10:16:11.134Z,4.22
2023-05-05T10:18:40.949Z,3.20
2023-05-05T10:21:08.891Z,3.30
2023-05-05T10:23:47.943Z,3.78
2023-05-05T10:26:16.970Z,4.25
2023-05-05T10:28:46.798Z,6.32
2023-05-05T10:31:26.034Z,6.17
2023-05-05T10:34:03.033Z,5.10
2023-05-05T10:36:31.837Z,6.05
2023-05-05T10:39:00.612Z,5.35
2023-05-05T10:41:28.681Z,7.53
2023-05-05T10:44:01.348Z,7.73
2023-05-05T10:46:30.074Z,8.23
2023-05-05T10:49:34.482Z,9.38
2023-05-05T10:52:33.114Z,12.52
2023-05-05T10:55:15.468Z,9.27
2023-05-05T10:57:45.884Z,12.40
2023-05-05T11:00:40.972Z,10.30
2023-05-05T11:03:17.116Z,10.63
2023-05-05T11:06:07.621Z,11.02
2023-05-05T11:08:35.934Z,9.10
2023-05-05T11:11:04.028Z,10.87
2023-05-05T11:13:31.475Z,11.55
2023-05-05T11:16:00.061Z,10.93
2023-05-05T11:18:35.964Z,11.63
2023-05-05T11:21:17.454Z,10.43
2023-05-05T11:23:49.803Z,15.33
2023-05-05T11:26:18.956Z,15.27
2023-05-05T11:29:03.575Z,10.80
2023-05-05T11:31:31.862Z,11.20
2023-05-05T11:34:25.772Z,11.20
2023-05-05T11:36:56.633Z,11.93
2023-05-05T11:39:32.858Z,12.15
2023-05-05T11:42:24.675Z,15.50
2023-05-05T11:44:52.351Z,14.80
2023-05-05T11:47:19.126Z,16.15
2023-05-05T11:49:45.968Z,16.40
2023-05-05T11:52:14.524Z,11.93
2023-05-05T11:54:50.480Z,10.95
2023-05-05T11:57:21.557Z,12.75
2023-05-05T11:59:59.988Z,8.27
2023-05-05T12:02:28.617Z,10.00
2023-05-05T12:04:56.596Z,9.32
2023-05-05T12:07:28.098Z,11.98
2023-05-05T12:09:55.354Z,11.25
2023-05-05T12:12:34.153Z,12.73
2023-05-05T12:15:01.086Z,9.70
2023-05-05T12:17:40.819Z,12.65
2023-05-05T12:20:09.319Z,11.73
2023-05-05T12:22:36.415Z,12.07
2023-05-05T12:25:05.442Z,18.17
2023-05-05T12:27:32.255Z,9.23
2023-05-05T12:30:11.818Z,11.13
2023-05-05T12:32:38.956Z,8.68
2023-05-05T12:35:07.843Z,11.70
2023-05-05T12:37:35.456Z,10.10
2023-05-05T12:40:02.239Z,10.97
2023-05-05T12:42:29.114Z,8.68
2023-05-05T12:44:55.996Z,9.60
2023-05-05T12:47:33.356Z,11.57
2023-05-05T12:50:02.929Z,9.52
2023-05-05T12:52:43.955Z,10.90
2023-05-05T12:55:11.541Z,9.18
2023-05-05T12:57:39.240Z,8.02
2023-05-05T13:00:17.697Z,8.52
2023-05-05T13:02:44.818Z,9.73
2023-05-05T13:05:11.961Z,9.37
2023-05-05T13:07:51.456Z,8.13
2023-05-05T13:10:18.553Z,6.32
2023-05-05T13:12:45.581Z,7.15
2023-05-05T13:15:12.796Z,9.35
2023-05-05T13:17:40.035Z,9.60
2023-05-05T13:20:09.753Z,9.25
2023-05-05T13:22:36.889Z,8.50
2023-05-05T13:25:03.952Z,7.38
2023-05-05T13:27:30.798Z,9.80
2023-05-05T13:29:57.690Z,7.20
2023-05-05T13:32:24.576Z,5.40
2023-05-05T13:34:51.479Z,8.18
2023-05-05T13:37:18.311Z,6.35
2023-05-05T13:39:45.136Z,5.65
2023-05-05T13:42:11.975Z,6.90
2023-05-05T13:44:39.404Z,6.20
2023-05-05T13:47:06.270Z,6.45
2023-05-05T13:49:33.724Z,5.10
2023-05-05T13:52:00.573Z,6.82
2023-05-05T13:54:28.051Z,6.90
2023-05-05T13:56:54.852Z,7.07
2023-05-05T13:59:21.834Z,9.15
2023-05-05T14:01:49.072Z,6.93
2023-05-05T14:04:16.143Z,7.93
2023-05-05T14:06:43.229Z,5.07
2023-05-05T14:09:10.277Z,6.05
2023-05-05T14:11:37.173Z,4.05
2023-05-05T14:14:04.040Z,6.80
2023-05-05T14:16:30.966Z,6.47
2023-05-05T14:18:58.011Z,5.77
2023-05-05T14:21:24.881Z,4.65
2023-05-05T14:23:51.678Z,4.93
2023-05-05T14:26:18.573Z,4.40
2023-05-05T14:28:46.771Z,4.45
2023-05-05T14:31:15.151Z,4.63
2023-05-05T14:33:41.975Z,3.92
2023-05-05T14:36:09.016Z,3.65
2023-05-05T14:38:36.067Z,3.08
2023-05-05T14:41:02.881Z,3.42
2023-05-05T14:43:29.718Z,3.33
2023-05-05T14:45:58.231Z,3.97
2023-05-05T14:48:25.118Z,3.92
2023-05-05T14:50:51.904Z,3.83
2023-05-05T14:53:21.428Z,3.75
2023-05-05T14:55:48.278Z,3.07
2023-05-05T14:58:15.198Z,3.67
2023-05-05T15:00:42.072Z,3.25
2023-05-05T15:03:08.982Z,3.22
2023-05-05T15:05:35.816Z,2.15
2023-05-05T15:08:02.643Z,2.37
2023-05-05T15:10:29.552Z,4.03
2023-05-05T15:12:56.462Z,3.25
2023-05-05T15:15:23.416Z,4.05
2023-05-05T15:17:50.260Z,3.35
2023-05-05T15:20:17.279Z,3.23
2023-05-05T15:22:44.043Z,2.78
2023-05-05T15:25:13.201Z,3.55
2023-05-05T15:27:40.362Z,3.88
2023-05-05T15:30:07.848Z,3.53
2023-05-05T15:32:34.671Z,2.37
2023-05-05T15:35:01.635Z,3.75
2023-05-05T15:37:28.961Z,3.45
2023-05-05T15:39:56.076Z,2.72
2023-05-05T15:42:22.896Z,3.30
2023-05-05T15:44:49.788Z,2.97
2023-05-05T15:47:16.686Z,3.63
2023-05-05T15:49:43.706Z,4.90
2023-05-05T15:52:11.586Z,3.00
2023-05-05T15:54:38.579Z,3.88
2023-05-05T15:57:05.451Z,2.83
2023-05-05T15:59:32.274Z,4.65
2023-05-05T16:01:59.162Z,3.65
2023-05-05T16:04:26.010Z,3.15
2023-05-05T16:06:53.473Z,3.65
2023-05-05T16:09:20.295Z,4.37
2023-05-05T16:11:47.437Z,3.30
2023-05-05T16:14:14.352Z,2.83
2023-05-05T16:16:41.339Z,4.03
2023-05-05T16:19:08.705Z,3.35
2023-05-05T16:21:35.588Z,2.40
2023-05-05T16:24:02.332Z,3.25
2023-05-05T16:26:29.204Z,4.90
2023-05-05T16:28:55.968Z,3.78
2023-05-05T16:31:23.061Z,3.55
2023-05-05T16:33:49.958Z,3.00
2023-05-05T16:36:16.859Z,3.65
2023-05-05T16:38:44.082Z,3.40
2023-05-05T16:41:11.217Z,2.58
2023-05-05T16:43:38.121Z,2.50
2023-05-05T16:46:06.063Z,4.83
2023-05-05T16:48:32.874Z,2.83
2023-05-05T16:50:59.817Z,4.07
2023-05-05T16:53:26.657Z,4.97
2023-05-05T16:55:53.964Z,3.30
2023-05-05T16:58:22.724Z,4.87
2023-05-05T17:00:50.307Z,5.00
2023-05-05T17:03:18.092Z,3.88
2023-05-05T17:05:49.036Z,3.88
2023-05-05T17:08:17.097Z,3.85
2023-05-05T17:10:45.287Z,4.50
2023-05-05T17:13:13.698Z,6.75
2023-05-05T17:15:41.372Z,4.30
2023-05-05T17:18:08.516Z,3.80
2023-05-05T17:20:36.310Z,4.85
2023-05-05T17:23:03.350Z,5.27
2023-05-05T17:25:30.343Z,4.53
2023-05-05T17:27:57.475Z,4.32
2023-05-05T17:30:24.484Z,4.63
2023-05-05T17:32:51.386Z,5.47
2023-05-05T17:35:18.545Z,4.40
2023-05-05T17:37:45.559Z,3.97
2023-05-05T17:40:12.721Z,3.80
2023-05-05T17:42:39.750Z,4.53
2023-05-05T17:45:07.973Z,4.57
2023-05-05T17:47:35.148Z,5.53
2023-05-05T17:50:02.120Z,4.78
2023-05-05T17:52:28.958Z,4.50
2023-05-05T17:54:55.875Z,6.07
2023-05-05T17:57:23.118Z,4.45
2023-05-05T17:59:51.821Z,4.67
2023-05-05T18:02:19.045Z,4.38
2023-05-05T18:04:46.491Z,5.65
2023-05-05T18:07:14.679Z,5.15
2023-05-05T18:09:42.198Z,4.40
2023-05-05T18:12:09.265Z,3.80
2023-05-05T18:14:36.344Z,6.95
2023-05-05T18:17:03.393Z,4.40
2023-05-05T18:19:30.527Z,4.00
2023-05-05T18:21:57.570Z,4.45
2023-05-05T18:24:24.686Z,4.33
2023-05-05T18:26:52.504Z,4.93
2023-05-05T18:29:21.663Z,4.43
2023-05-05T18:31:52.188Z,5.38
2023-05-05T18:34:20.590Z,5.25
2023-05-05T18:36:51.476Z,5.73
2023-05-05T18:39:18.356Z,5.40
2023-05-05T18:41:45.279Z,5.00
2023-05-05T18:44:12.243Z,4.28
2023-05-05T18:46:39.182Z,3.90
2023-05-05T18:49:06.285Z,7.30
2023-05-05T18:51:33.149Z,4.50
2023-05-05T18:54:01.058Z,5.88
2023-05-05T18:56:27.970Z,4.85
2023-05-05T18:58:54.897Z,6.15
2023-05-05T19:01:22.107Z,4.97
2023-05-05T19:03:49.751Z,5.63
2023-05-05T19:06:17.151Z,4.63
2023-05-05T19:08:45.126Z,5.38
2023-05-05T19:11:12.525Z,6.15
2023-05-05T19:13:39.892Z,5.00
2023-05-05T19:16:07.255Z,4.95
2023-05-05T19:18:34.128Z,5.78
2023-05-05T19:21:01.471Z,7.47
2023-05-05T19:23:28.380Z,4.82
2023-05-05T19:25:55.229Z,5.57
2023-05-05T19:28:22.113Z,8.73
2023-05-05T19:30:49.037Z,6.88
2023-05-05T19:33:16.324Z,7.85
2023-05-05T19:35:43.735Z,7.05
2023-05-05T19:38:10.986Z,6.17
2023-05-05T19:40:38.756Z,5.30
2023-05-05T19:43:05.689Z,5.57
2023-05-05T19:45:33.887Z,5.45
2023-05-05T19:48:01.610Z,7.53
2023-05-05T19:50:30.649Z,6.60
2023-05-05T19:52:58.149Z,5.65
2023-05-05T19:55:25.131Z,9.60
2023-05-05T19:57:52.055Z,7.57
2023-05-05T20:00:19.788Z,6.85
2023-05-05T20:02:47.300Z,7.03
2023-05-05T20:05:16.220Z,6.63
2023-05-05T20:07:43.900Z,7.38
2023-05-05T20:10:13.108Z,7.97
2023-05-05T20:12:47.344Z,10.38
2023-05-05T20:15:20.297Z,7.43
2023-05-05T20:17:47.942Z,7.47
2023-05-05T20:20:21.253Z,7.18
2023-05-05T20:22:49.326Z,8.18
2023-05-05T20:25:16.433Z,7.60
2023-05-05T20:27:43.714Z,9.17
2023-05-05T20:30:12.249Z,8.27
2023-05-05T20:32:39.313Z,7.95
2023-05-05T20:35:07.257Z,8.43
2023-05-05T20:37:34.082Z,7.90
2023-05-05T20:40:00.914Z,8.57
2023-05-05T20:42:28.030Z,7.95
2023-05-05T20:44:54.902Z,6.97
2023-05-05T20:47:21.690Z,7.97
2023-05-05T20:49:48.564Z,8.60
2023-05-05T20:52:15.692Z,8.90
2023-05-05T20:54:42.589Z,9.02
2023-05-05T20:57:09.920Z,7.60
2023-05-05T20:59:38.108Z,8.95
2023-05-05T21:02:04.939Z,12.73
2023-05-05T21:04:31.874Z,8.77
2023-05-05T21:06:58.697Z,8.63
2023-05-05T21:09:26.071Z,9.25
2023-05-05T21:11:52.999Z,8.73
2023-05-05T21:14:19.842Z,9.73
2023-05-05T21:16:46.780Z,9.70
2023-05-05T21:19:13.644Z,9.50
2023-05-05T21:21:40.519Z,10.02
2023-05-05T21:24:08.134Z,8.60
2023-05-05T21:26:35.125Z,8.30
2023-05-05T21:29:01.888Z,9.27
2023-05-05T21:31:28.840Z,9.02
2023-05-05T21:33:55.683Z,8.98
2023-05-05T21:36:22.599Z,12.23
2023-05-05T21:39:01.285Z,10.10
2023-05-05T21:41:28.365Z,11.17
2023-05-05T21:43:55.624Z,9.70
2023-05-05T21:46:22.578Z,10.30
2023-05-05T21:48:49.481Z,11.13
2023-05-05T21:51:16.416Z,9.05
2023-05-05T21:53:43.427Z,12.73
2023-05-05T21:56:10.303Z,11.07
2023-05-05T21:58:37.290Z,11.65
2023-05-05T22:01:04.150Z,10.77
2023-05-05T22:03:31.087Z,11.05
2023-05-05T22:05:57.980Z,12.03
2023-05-05T22:08:24.772Z,12.88
2023-05-05T22:10:52.139Z,11.70
2023-05-05T22:13:19.341Z,10.15
2023-05-05T22:15:47.382Z,12.23
2023-05-05T22:18:15.762Z,11.70
2023-05-05T22:20:43.568Z,11.88
2023-05-05T22:23:10.953Z,11.88
2023-05-05T22:25:38.372Z,10.30
2023-05-05T22:28:05.189Z,10.90
2023-05-05T22:30:32.158Z,11.80
2023-05-05T22:32:59.102Z,13.25
2023-05-05T22:35:25.929Z,13.90
2023-05-05T22:37:52.735Z,11.77
2023-05-05T22:40:19.624Z,10.82
2023-05-05T22:42:46.455Z,13.10
2023-05-05T22:45:13.759Z,14.93
2023-05-05T22:47:40.827Z,13.23
2023-05-05T22:50:08.285Z,14.52
2023-05-05T22:52:35.579Z,14.73
2023-05-05T22:55:03.461Z,14.27
2023-05-05T22:57:31.040Z,13.70
2023-05-05T22:59:58.560Z,12.30
2023-05-05T23:02:26.873Z,14.25
2023-05-05T23:04:53.879Z,13.45
2023-05-05T23:07:20.904Z,15.33
2023-05-05T23:09:47.967Z,17.40
2023-05-05T23:12:14.888Z,14.95
2023-05-05T23:14:41.830Z,14.95
2023-05-05T23:17:08.715Z,16.25
2023-05-05T23:19:36.030Z,15.70
2023-05-05T23:22:03.538Z,15.30
2023-05-05T23:24:30.905Z,17.15
2023-05-05T23:27:04.552Z,16.58
2023-05-05T23:29:31.772Z,16.27
2023-05-05T23:31:58.985Z,16.27
2023-05-05T23:34:26.809Z,15.55
2023-05-05T23:36:54.025Z,15.65
2023-05-05T23:39:20.945Z,17.90
2023-05-05T23:41:47.810Z,17.77
2023-05-05T23:44:14.676Z,17.63
2023-05-05T23:46:41.644Z,17.27
2023-05-05T23:49:08.632Z,16.52
2023-05-05T23:51:35.408Z,20.77
2023-05-05T23:54:02.226Z,16.77
2023-05-05T23:56:29.066Z,18.67
2023-05-05T23:58:56.239Z,17.70
